createdAt,value
2023-01-26T00:01:31.276Z,9.07
2023-01-26T00:03:58.683Z,9.23
2023-01-26T00:06:27.080Z,9.88
2023-01-26T00:08:57.185Z,8.90
2023-01-26T00:11:27.011Z,9.55
2023-01-26T00:13:56.300Z,10.55
2023-01-26T00:16:24.975Z,9.38
2023-01-26T00:18:52.494Z,10.25
2023-01-26T00:21:22.170Z,8.05
2023-01-26T00:23:51.179Z,9.27
2023-01-26T00:26:22.403Z,9.18
2023-01-26T00:28:50.432Z,9.30
2023-01-26T00:31:22.439Z,9.35
2023-01-26T00:33:51.150Z,8.70
2023-01-26T00:36:19.104Z,8.35
2023-01-26T00:38:46.983Z,8.52
2023-01-26T00:41:34.600Z,9.13
2023-01-26T00:44:02.131Z,8.43
2023-01-26T00:46:29.663Z,8.60
2023-01-26T00:48:57.942Z,9.57
2023-01-26T00:51:25.352Z,9.27
2023-01-26T00:53:52.746Z,9.55
2023-01-26T00:56:20.154Z,8.75
2023-01-26T00:58:47.569Z,8.63
2023-01-26T01:01:14.969Z,8.30
2023-01-26T01:03:43.277Z,9.52
2023-01-26T01:06:10.738Z,9.35
2023-01-26T01:08:38.176Z,8.00
2023-01-26T01:11:11.548Z,8.65
2023-01-26T01:13:39.752Z,8.73
2023-01-26T01:16:13.256Z,8.95
2023-01-26T01:18:40.814Z,8.70
2023-01-26T01:21:20.418Z,7.90
2023-01-26T01:23:47.883Z,8.88
2023-01-26T01:26:16.066Z,8.73
2023-01-26T01:28:44.145Z,8.43
2023-01-26T01:31:14.720Z,7.97
2023-01-26T01:33:42.772Z,7.72
2023-01-26T01:36:16.123Z,7.82
2023-01-26T01:38:45.063Z,8.13
2023-01-26T01:41:14.449Z,8.07
2023-01-26T01:43:42.364Z,7.72
2023-01-26T01:46:33.880Z,7.70
2023-01-26T01:49:19.850Z,8.43
2023-01-26T01:51:52.919Z,9.27
2023-01-26T01:54:27.723Z,7.18
2023-01-26T01:57:00.630Z,7.63
2023-01-26T01:59:29.667Z,8.30
2023-01-26T02:01:57.154Z,7.75
2023-01-26T02:04:25.764Z,8.10
2023-01-26T02:06:58.209Z,9.50
2023-01-26T02:09:50.122Z,8.05
2023-01-26T02:12:21.926Z,7.90
2023-01-26T02:14:52.054Z,8.15
2023-01-26T02:17:19.675Z,9.15
2023-01-26T02:19:52.620Z,8.45
2023-01-26T02:23:04.169Z,7.97
2023-01-26T02:25:31.563Z,8.32
2023-01-26T02:27:58.998Z,8.20
2023-01-26T02:30:29.258Z,8.52
2023-01-26T02:32:56.655Z,8.18
2023-01-26T02:35:24.121Z,7.88
2023-01-26T02:37:51.593Z,10.13
2023-01-26T02:40:38.423Z,8.93
2023-01-26T02:43:06.375Z,8.95
2023-01-26T02:45:34.661Z,8.30
2023-01-26T02:48:04.834Z,9.02
2023-01-26T02:50:32.831Z,9.25
2023-01-26T02:53:01.367Z,8.23
2023-01-26T02:55:30.832Z,8.45
2023-01-26T02:58:02.151Z,8.55
2023-01-26T03:00:37.205Z,9.50
2023-01-26T03:03:14.653Z,8.77
2023-01-26T03:05:42.483Z,9.02
2023-01-26T03:08:10.036Z,8.25
2023-01-26T03:10:38.323Z,9.18
2023-01-26T03:13:07.230Z,8.20
2023-01-26T03:15:43.623Z,8.32
2023-01-26T03:18:34.034Z,9.60
2023-01-26T03:21:25.786Z,7.93
2023-01-26T03:24:11.548Z,9.40
2023-01-26T03:26:58.996Z,8.48
2023-01-26T03:29:27.551Z,9.38
2023-01-26T03:31:59.403Z,8.43
2023-01-26T03:34:27.407Z,8.90
2023-01-26T03:36:54.767Z,9.18
2023-01-26T03:39:40.745Z,8.77
2023-01-26T03:42:26.542Z,8.90
2023-01-26T03:45:12.426Z,9.27
2023-01-26T03:48:00.724Z,8.27
2023-01-26T03:50:46.593Z,8.40
2023-01-26T03:53:34.780Z,8.25
2023-01-26T03:56:23.082Z,9.32
2023-01-26T03:58:57.487Z,9.32
2023-01-26T04:01:28.399Z,9.30
2023-01-26T04:04:17.650Z,9.13
2023-01-26T04:07:07.364Z,8.85
2023-01-26T04:09:39.433Z,8.52
2023-01-26T04:12:10.197Z,8.43
2023-01-26T04:15:03.158Z,8.93
2023-01-26T04:17:49.136Z,8.15
2023-01-26T04:20:34.991Z,8.13
2023-01-26T04:23:02.465Z,8.10
2023-01-26T04:25:29.923Z,8.88
2023-01-26T04:27:58.420Z,7.78
2023-01-26T04:30:25.901Z,8.38
2023-01-26T04:32:53.411Z,7.85
2023-01-26T04:35:20.872Z,7.68
2023-01-26T04:37:48.776Z,7.75
2023-01-26T04:40:16.330Z,8.98
2023-01-26T04:42:43.900Z,8.13
2023-01-26T04:45:12.403Z,7.38
2023-01-26T04:47:39.951Z,7.30
2023-01-26T04:50:07.974Z,9.27
2023-01-26T04:52:35.459Z,7.65
2023-01-26T04:55:02.849Z,7.55
2023-01-26T04:57:32.614Z,8.48
2023-01-26T05:00:02.206Z,8.55
2023-01-26T05:02:29.745Z,8.30
2023-01-26T05:04:57.148Z,8.07
2023-01-26T05:07:27.150Z,8.38
2023-01-26T05:09:55.730Z,7.65
2023-01-26T05:12:52.244Z,7.80
2023-01-26T05:15:54.637Z,8.82
2023-01-26T05:18:38.625Z,8.40
2023-01-26T05:21:18.242Z,8.27
2023-01-26T05:23:50.026Z,8.02
2023-01-26T05:26:43.434Z,7.72
2023-01-26T05:29:14.481Z,8.35
2023-01-26T05:31:42.002Z,8.10
2023-01-26T05:34:09.510Z,8.45
2023-01-26T05:36:37.781Z,9.02
2023-01-26T05:39:05.545Z,9.38
2023-01-26T05:41:33.164Z,7.35
2023-01-26T05:44:26.827Z,8.38
2023-01-26T05:47:02.669Z,8.02
2023-01-26T05:49:31.224Z,8.05
2023-01-26T05:51:59.202Z,6.88
2023-01-26T05:54:26.702Z,8.85
2023-01-26T05:56:55.061Z,8.75
2023-01-26T05:59:22.654Z,9.85
2023-01-26T06:01:50.252Z,9.75
2023-01-26T06:04:18.025Z,9.77
2023-01-26T06:06:57.223Z,9.68
2023-01-26T06:09:29.151Z,9.18
2023-01-26T06:12:19.313Z,8.45
2023-01-26T06:15:00.113Z,8.63
2023-01-26T06:17:43.172Z,8.38
2023-01-26T06:20:14.871Z,8.75
2023-01-26T06:22:47.768Z,8.00
2023-01-26T06:25:16.133Z,8.50
2023-01-26T06:27:43.624Z,8.45
2023-01-26T06:30:18.786Z,8.60
2023-01-26T06:32:47.761Z,8.82
2023-01-26T06:35:15.416Z,8.57
2023-01-26T06:37:43.660Z,8.85
2023-01-26T06:40:12.086Z,8.95
2023-01-26T06:42:39.750Z,11.48
2023-01-26T06:45:07.898Z,10.07
2023-01-26T06:47:36.760Z,9.43
2023-01-26T06:50:04.965Z,9.10
2023-01-26T06:52:36.438Z,8.93
2023-01-26T06:55:34.842Z,8.90
2023-01-26T06:58:22.188Z,9.82
2023-01-26T07:00:56.699Z,9.60
2023-01-26T07:03:34.250Z,8.45
2023-01-26T07:06:01.828Z,8.75
2023-01-26T07:08:29.448Z,9.88
2023-01-26T07:10:56.967Z,8.95
2023-01-26T07:13:24.382Z,7.47
2023-01-26T07:15:51.822Z,9.10
2023-01-26T07:18:19.253Z,9.18
2023-01-26T07:20:46.678Z,8.20
2023-01-26T07:23:14.090Z,8.57
2023-01-26T07:25:44.384Z,8.73
2023-01-26T07:28:11.900Z,9.02
2023-01-26T07:30:39.367Z,11.10
2023-01-26T07:33:06.766Z,11.30
2023-01-26T07:35:34.240Z,12.50
2023-01-26T07:38:04.645Z,10.00
2023-01-26T07:40:32.031Z,10.45
2023-01-26T07:42:59.925Z,10.02
2023-01-26T07:45:52.059Z,11.35
2023-01-26T07:48:21.154Z,9.32
2023-01-26T07:50:49.623Z,10.23
2023-01-26T07:53:22.759Z,10.02
2023-01-26T07:55:50.202Z,9.45
2023-01-26T07:58:18.710Z,9.48
2023-01-26T08:00:49.314Z,8.65
2023-01-26T08:03:16.758Z,9.48
2023-01-26T08:05:44.552Z,9.65
2023-01-26T08:08:12.266Z,9.82
2023-01-26T08:10:40.562Z,8.90
2023-01-26T08:13:07.942Z,10.02
2023-01-26T08:15:35.384Z,10.93
2023-01-26T08:18:04.467Z,10.75
2023-01-26T08:20:31.921Z,10.95
2023-01-26T08:23:00.531Z,9.73
2023-01-26T08:25:27.976Z,9.80
2023-01-26T08:27:55.985Z,10.50
2023-01-26T08:30:23.396Z,10.63
2023-01-26T08:32:50.827Z,9.95
2023-01-26T08:35:18.229Z,11.93
2023-01-26T08:37:45.645Z,9.57
2023-01-26T08:40:13.694Z,9.90
2023-01-26T08:42:41.201Z,10.73
2023-01-26T08:45:09.671Z,10.55
2023-01-26T08:47:37.082Z,10.88
2023-01-26T08:50:05.201Z,10.18
2023-01-26T08:52:32.667Z,9.70
2023-01-26T08:55:00.998Z,9.18
2023-01-26T08:57:28.402Z,10.57
2023-01-26T08:59:55.881Z,8.82
2023-01-26T09:02:23.331Z,9.77
2023-01-26T09:04:50.812Z,9.57
2023-01-26T09:07:18.215Z,9.02
2023-01-26T09:09:45.722Z,9.75
2023-01-26T09:12:13.156Z,9.57
2023-01-26T09:14:41.336Z,10.23
2023-01-26T09:17:08.794Z,10.02
2023-01-26T09:19:36.398Z,9.48
2023-01-26T09:22:03.814Z,10.70
2023-01-26T09:24:31.329Z,8.38
2023-01-26T09:26:58.782Z,9.93
2023-01-26T09:29:26.209Z,10.88
2023-01-26T09:31:55.155Z,12.95
2023-01-26T09:34:25.275Z,9.85
2023-01-26T09:36:52.892Z,11.98
2023-01-26T09:39:23.144Z,9.60
2023-01-26T09:42:03.144Z,9.82
2023-01-26T09:44:37.081Z,10.23
2023-01-26T09:47:42.723Z,9.95
2023-01-26T09:50:25.689Z,9.13
2023-01-26T09:52:59.319Z,8.73
2023-01-26T09:55:27.585Z,9.55
2023-01-26T09:58:06.312Z,9.35
2023-01-26T10:00:47.294Z,9.82
2023-01-26T10:03:46.098Z,9.63
2023-01-26T10:06:21.511Z,9.27
2023-01-26T10:09:26.708Z,9.85
2023-01-26T10:11:58.471Z,10.13
2023-01-26T10:14:45.391Z,10.23
2023-01-26T10:17:39.012Z,9.80
2023-01-26T10:20:09.605Z,9.65
2023-01-26T10:22:51.841Z,9.15
2023-01-26T10:25:34.052Z,9.63
2023-01-26T10:28:23.165Z,10.32
2023-01-26T10:30:51.510Z,10.05
2023-01-26T10:33:35.563Z,10.13
2023-01-26T10:36:06.656Z,10.90
2023-01-26T10:38:34.079Z,10.18
2023-01-26T10:41:14.688Z,9.27
2023-01-26T10:43:49.820Z,9.60
2023-01-26T10:46:35.463Z,10.07
2023-01-26T10:49:15.670Z,9.82
2023-01-26T10:51:46.365Z,9.52
2023-01-26T10:54:28.093Z,9.50
2023-01-26T10:57:04.102Z,9.27
2023-01-26T10:59:35.025Z,8.45
2023-01-26T11:02:21.238Z,10.10
2023-01-26T11:05:07.030Z,10.32
2023-01-26T11:07:40.117Z,9.95
2023-01-26T11:10:33.608Z,10.95
2023-01-26T11:13:20.508Z,10.52
2023-01-26T11:16:01.225Z,9.23
2023-01-26T11:18:57.477Z,10.25
2023-01-26T11:21:55.437Z,10.18
2023-01-26T11:24:34.266Z,10.48
2023-01-26T11:27:35.674Z,10.43
2023-01-26T11:30:15.388Z,10.55
2023-01-26T11:32:46.277Z,10.88
2023-01-26T11:35:32.109Z,10.77
2023-01-26T11:38:09.659Z,11.15
2023-01-26T11:40:55.244Z,10.55
2023-01-26T11:43:40.951Z,9.77
2023-01-26T11:46:08.342Z,10.20
2023-01-26T11:48:38.438Z,10.40
2023-01-26T11:51:20.579Z,9.68
2023-01-26T11:54:14.113Z,10.82
2023-01-26T11:57:07.242Z,9.70
2023-01-26T11:59:46.608Z,9.88
2023-01-26T12:02:27.797Z,10.00
2023-01-26T12:05:03.358Z,8.10
2023-01-26T12:07:51.350Z,10.43
2023-01-26T12:10:28.451Z,9.50
2023-01-26T12:13:07.859Z,12.50
2023-01-26T12:15:38.257Z,10.45
2023-01-26T12:18:10.279Z,11.52
2023-01-26T12:20:52.730Z,10.52
2023-01-26T12:23:51.935Z,10.18
2023-01-26T12:26:23.357Z,10.18
2023-01-26T12:29:28.707Z,9.87
2023-01-26T12:31:59.029Z,12.32
2023-01-26T12:34:29.460Z,12.38
2023-01-26T12:37:15.675Z,11.23
2023-01-26T12:39:56.435Z,12.45
2023-01-26T12:42:34.501Z,12.88
2023-01-26T12:45:02.571Z,12.57
2023-01-26T12:47:45.929Z,12.38
2023-01-26T12:50:35.669Z,12.00
2023-01-26T12:53:15.063Z,11.65
2023-01-26T12:55:56.557Z,12.02
2023-01-26T12:58:25.979Z,7.40
2023-01-26T13:01:02.265Z,10.82
2023-01-26T13:03:57.053Z,11.07
2023-01-26T13:06:29.128Z,11.85
2023-01-26T13:09:00.520Z,11.15
2023-01-26T13:11:46.840Z,11.63
2023-01-26T13:14:38.472Z,12.57
2023-01-26T13:17:19.017Z,11.57
2023-01-26T13:19:46.408Z,11.48
2023-01-26T13:22:19.694Z,10.65
2023-01-26T13:24:49.358Z,12.65
2023-01-26T13:27:33.975Z,12.60
2023-01-26T13:30:01.948Z,12.93
2023-01-26T13:32:49.262Z,11.75
2023-01-26T13:35:20.700Z,10.75
2023-01-26T13:38:00.817Z,10.35
2023-01-26T13:40:35.035Z,12.15
2023-01-26T13:43:26.758Z,11.95
2023-01-26T13:48:44.864Z,9.45
2023-01-26T13:51:31.329Z,10.43
2023-01-26T13:54:05.023Z,12.35
2023-01-26T13:56:43.932Z,14.98
2023-01-26T13:59:17.657Z,11.77
2023-01-26T14:01:48.513Z,11.63
2023-01-26T14:04:21.815Z,11.82
2023-01-26T14:06:51.886Z,11.25
2023-01-26T14:09:19.847Z,11.43
2023-01-26T14:11:56.131Z,10.70
2023-01-26T14:14:29.258Z,11.40
2023-01-26T14:17:00.561Z,11.43
2023-01-26T14:19:29.688Z,10.93
2023-01-26T14:21:58.061Z,11.38
2023-01-26T14:24:31.800Z,11.35
2023-01-26T14:27:00.041Z,12.77
2023-01-26T14:29:29.859Z,12.20
2023-01-26T14:31:59.361Z,11.20
2023-01-26T14:34:29.735Z,11.68
2023-01-26T14:37:12.026Z,11.23
2023-01-26T14:39:39.754Z,11.63
2023-01-26T14:42:07.387Z,13.57
2023-01-26T14:44:35.318Z,12.70
2023-01-26T14:47:22.611Z,11.32
2023-01-26T14:49:52.538Z,12.63
2023-01-26T14:52:30.487Z,12.43
2023-01-26T14:55:03.008Z,11.25
2023-01-26T14:57:31.623Z,10.85
2023-01-26T15:00:01.094Z,12.57
2023-01-26T15:02:37.702Z,11.82
2023-01-26T15:05:21.522Z,11.43
2023-01-26T15:07:58.607Z,11.70
2023-01-26T15:10:35.399Z,12.10
2023-01-26T15:13:05.939Z,11.52
2023-01-26T15:15:48.554Z,12.82
2023-01-26T15:18:20.496Z,11.50
2023-01-26T15:21:04.967Z,11.75
2023-01-26T15:23:35.612Z,12.88
2023-01-26T15:26:24.618Z,12.55
2023-01-26T15:28:54.251Z,11.38
2023-01-26T15:31:33.425Z,12.68
2023-01-26T15:34:03.983Z,11.40
2023-01-26T15:36:46.732Z,10.75
2023-01-26T15:39:16.431Z,12.23
2023-01-26T15:41:46.164Z,13.57
2023-01-26T15:44:19.501Z,12.65
2023-01-26T15:46:47.015Z,12.05
2023-01-26T15:49:14.792Z,11.93
2023-01-26T15:51:42.142Z,12.07
2023-01-26T15:54:11.294Z,11.98
2023-01-26T15:56:38.698Z,13.40
2023-01-26T15:59:06.172Z,12.20
2023-01-26T16:01:33.545Z,13.98
2023-01-26T16:04:01.137Z,13.68
2023-01-26T16:06:31.405Z,14.77
2023-01-26T16:08:59.256Z,13.95
2023-01-26T16:11:36.081Z,14.00
2023-01-26T16:14:04.495Z,13.90
2023-01-26T16:16:32.856Z,14.82
2023-01-26T16:19:00.395Z,14.02
2023-01-26T16:21:31.576Z,16.00
2023-01-26T16:24:00.151Z,15.60
2023-01-26T16:26:28.463Z,15.38
2023-01-26T16:28:57.280Z,17.80
2023-01-26T16:31:30.649Z,17.13
2023-01-26T16:34:00.055Z,16.48
2023-01-26T16:36:27.738Z,15.57
2023-01-26T16:38:55.277Z,15.57
2023-01-26T16:41:28.523Z,16.98
2023-01-26T16:43:57.807Z,18.90
2023-01-26T16:46:26.212Z,14.73
2023-01-26T16:48:54.057Z,15.35
2023-01-26T16:51:24.588Z,15.82
2023-01-26T16:53:52.548Z,15.20
2023-01-26T16:56:20.494Z,18.70
2023-01-26T16:58:51.701Z,16.00
2023-01-26T17:01:20.685Z,15.23
2023-01-26T17:03:48.473Z,13.57
2023-01-26T17:06:17.161Z,16.40
2023-01-26T17:08:45.274Z,15.65
2023-01-26T17:11:30.553Z,20.05
2023-01-26T17:13:59.269Z,24.80
2023-01-26T17:16:34.916Z,22.95
2023-01-26T17:19:02.423Z,23.50
2023-01-26T17:21:29.883Z,30.92
2023-01-26T17:23:58.880Z,30.23
2023-01-26T17:26:26.389Z,25.90
2023-01-26T17:28:55.239Z,41.35
2023-01-26T17:31:23.708Z,35.60
2023-01-26T17:33:51.401Z,28.88
2023-01-26T17:36:20.141Z,23.55
2023-01-26T17:38:48.750Z,25.02
2023-01-26T17:41:16.981Z,20.02
2023-01-26T17:43:44.941Z,20.02
2023-01-26T17:46:15.117Z,18.80
2023-01-26T17:48:45.325Z,17.35
2023-01-26T17:51:16.742Z,19.15
2023-01-26T17:53:45.987Z,22.95
2023-01-26T17:56:15.710Z,31.13
2023-01-26T17:58:46.661Z,26.83
2023-01-26T18:01:14.106Z,23.92
2023-01-26T18:03:42.497Z,18.75
2023-01-26T18:06:10.663Z,17.85
2023-01-26T18:08:39.412Z,16.20
2023-01-26T18:11:09.928Z,17.08
2023-01-26T18:13:37.475Z,15.63
2023-01-26T18:16:06.622Z,15.38
2023-01-26T18:18:34.409Z,16.45
2023-01-26T18:21:19.099Z,15.52
2023-01-26T18:23:59.097Z,16.05
2023-01-26T18:26:32.412Z,15.73
2023-01-26T18:29:00.128Z,14.95
2023-01-26T18:31:29.979Z,21.15
2023-01-26T18:33:58.893Z,21.73
2023-01-26T18:36:27.028Z,20.67
2023-01-26T18:38:59.975Z,21.67
2023-01-26T18:41:30.372Z,28.35
2023-01-26T18:43:58.531Z,29.27
2023-01-26T18:46:27.650Z,27.88
2023-01-26T18:49:00.717Z,36.00
2023-01-26T18:51:30.076Z,22.63
2023-01-26T18:53:57.817Z,12.35
2023-01-26T18:56:28.312Z,11.85
2023-01-26T18:58:55.746Z,13.43
2023-01-26T19:01:23.350Z,14.02
2023-01-26T19:03:55.188Z,19.23
2023-01-26T19:06:24.841Z,18.98
2023-01-26T19:09:01.311Z,21.60
2023-01-26T19:11:31.705Z,19.00
2023-01-26T19:14:00.212Z,12.75
2023-01-26T19:16:29.029Z,14.02
2023-01-26T19:18:56.996Z,17.40
2023-01-26T19:21:27.417Z,12.60
2023-01-26T19:23:57.599Z,11.43
2023-01-26T19:26:27.925Z,15.13
2023-01-26T19:28:55.866Z,17.13
2023-01-26T19:31:24.216Z,13.35
2023-01-26T19:33:56.764Z,12.80
2023-01-26T19:36:25.240Z,11.82
2023-01-26T19:38:52.708Z,13.80
2023-01-26T19:41:21.274Z,13.15
2023-01-26T19:43:51.241Z,13.85
2023-01-26T19:46:19.875Z,11.35
2023-01-26T19:48:47.873Z,11.60
2023-01-26T19:51:23.957Z,10.73
2023-01-26T19:53:55.219Z,11.52
2023-01-26T19:56:25.738Z,8.57
2023-01-26T19:58:56.547Z,10.82
2023-01-26T20:01:27.709Z,10.67
2023-01-26T20:04:02.233Z,12.02
2023-01-26T20:06:33.629Z,13.38
2023-01-26T20:09:06.316Z,14.50
2023-01-26T20:11:36.281Z,12.38
2023-01-26T20:14:08.675Z,13.50
2023-01-26T20:16:37.627Z,11.38
2023-01-26T20:19:05.145Z,12.70
2023-01-26T20:21:33.576Z,13.43
2023-01-26T20:24:05.583Z,13.73
2023-01-26T20:26:35.222Z,14.88
2023-01-26T20:29:03.458Z,14.95
2023-01-26T20:31:33.075Z,14.00
2023-01-26T20:34:01.985Z,13.77
2023-01-26T20:36:30.170Z,14.00
2023-01-26T20:38:57.879Z,14.80
2023-01-26T20:41:28.042Z,11.85
2023-01-26T20:44:00.376Z,17.88
2023-01-26T20:46:41.534Z,17.48
2023-01-26T20:49:13.609Z,17.25
2023-01-26T20:51:42.744Z,17.52
2023-01-26T20:54:13.656Z,17.33
2023-01-26T20:56:41.216Z,14.25
2023-01-26T20:59:09.286Z,17.00
2023-01-26T21:01:36.814Z,20.48
2023-01-26T21:04:05.653Z,20.73
2023-01-26T21:06:33.281Z,19.00
2023-01-26T21:09:01.194Z,15.38
2023-01-26T21:11:30.794Z,17.42
2023-01-26T21:14:01.654Z,16.63
2023-01-26T21:16:31.775Z,18.40
2023-01-26T21:18:59.417Z,16.42
2023-01-26T21:21:27.075Z,15.98
2023-01-26T21:23:54.513Z,14.57
2023-01-26T21:26:24.320Z,21.58
2023-01-26T21:28:57.042Z,16.98
2023-01-26T21:31:26.678Z,17.10
2023-01-26T21:33:54.711Z,20.05
2023-01-26T21:36:24.699Z,23.63
2023-01-26T21:38:54.342Z,20.48
2023-01-26T21:41:48.362Z,15.52
2023-01-26T21:44:18.296Z,15.38
2023-01-26T21:46:48.129Z,14.73
2023-01-26T21:49:16.842Z,15.15
2023-01-26T21:52:03.175Z,14.73
2023-01-26T21:54:31.782Z,16.00
2023-01-26T21:57:00.372Z,15.50
2023-01-26T21:59:28.799Z,15.25
2023-01-26T22:01:58.089Z,16.48
2023-01-26T22:04:29.250Z,16.33
2023-01-26T22:06:57.399Z,11.40
2023-01-26T22:09:25.424Z,16.83
2023-01-26T22:11:53.015Z,17.58
2023-01-26T22:14:22.952Z,15.80
2023-01-26T22:16:50.463Z,19.42
2023-01-26T22:19:17.964Z,19.45
2023-01-26T22:21:45.369Z,17.88
2023-01-26T22:24:14.729Z,18.40
2023-01-26T22:26:43.010Z,17.75
2023-01-26T22:29:12.700Z,16.55
2023-01-26T22:31:40.270Z,18.27
2023-01-26T22:34:07.713Z,16.98
2023-01-26T22:36:35.147Z,15.57
2023-01-26T22:39:03.369Z,15.75
2023-01-26T22:41:32.074Z,13.75
2023-01-26T22:44:00.616Z,14.88
2023-01-26T22:46:29.856Z,14.10
2023-01-26T22:48:58.232Z,15.10
2023-01-26T22:51:30.415Z,13.27
2023-01-26T22:53:58.841Z,12.55
2023-01-26T22:56:27.181Z,12.23
2023-01-26T22:58:59.328Z,15.95
2023-01-26T23:01:30.056Z,12.57
2023-01-26T23:03:58.641Z,12.13
2023-01-26T23:06:26.506Z,12.55
2023-01-26T23:08:54.276Z,12.88
2023-01-26T23:11:23.806Z,10.45
2023-01-26T23:13:52.916Z,12.18
2023-01-26T23:16:24.199Z,12.82
2023-01-26T23:18:53.035Z,11.55
2023-01-26T23:21:20.924Z,11.30
2023-01-26T23:23:48.530Z,11.80
2023-01-26T23:26:16.053Z,12.70
2023-01-26T23:28:44.461Z,12.10
2023-01-26T23:31:14.137Z,11.57
2023-01-26T23:33:41.710Z,12.70
2023-01-26T23:36:13.491Z,10.27
2023-01-26T23:38:41.353Z,11.48
2023-01-26T23:41:08.807Z,12.70
2023-01-26T23:43:36.674Z,13.18
2023-01-26T23:46:08.423Z,11.52
2023-01-26T23:48:36.184Z,11.70
2023-01-26T23:51:06.319Z,11.30
2023-01-26T23:53:34.367Z,11.73
2023-01-26T23:56:10.297Z,12.77
2023-01-26T23:58:37.798Z,12.40
